createdAt,value
2023-08-08T00:00:29.256Z,16.13
2023-08-08T00:03:02.203Z,16.08
2023-08-08T00:05:37.342Z,16.05
2023-08-08T00:08:10.257Z,16.02
2023-08-08T00:10:48.452Z,15.98
2023-08-08T00:13:21.388Z,15.95
2023-08-08T00:15:59.937Z,15.92
2023-08-08T00:18:33.056Z,15.89
2023-08-08T00:21:11.652Z,15.86
2023-08-08T00:23:44.577Z,15.82
2023-08-08T00:26:20.061Z,15.79
2023-08-08T00:28:55.262Z,15.74
2023-08-08T00:31:29.584Z,15.72
2023-08-08T00:34:05.061Z,15.70
2023-08-08T00:36:39.855Z,15.67
2023-08-08T00:39:12.998Z,15.67
2023-08-08T00:41:45.893Z,15.66
2023-08-08T00:44:18.755Z,15.67
2023-08-08T00:46:53.027Z,15.69
2023-08-08T00:49:26.042Z,15.70
2023-08-08T00:51:59.362Z,15.71
2023-08-08T00:54:33.695Z,15.72
2023-08-08T00:57:07.501Z,15.73
2023-08-08T00:59:40.396Z,15.73
2023-08-08T01:02:14.742Z,15.71
2023-08-08T01:04:48.067Z,15.70
2023-08-08T01:07:28.948Z,15.68
2023-08-08T01:10:09.220Z,15.66
2023-08-08T01:12:47.572Z,15.63
2023-08-08T01:15:21.369Z,15.62
2023-08-08T01:17:57.075Z,15.59
2023-08-08T01:20:30.118Z,15.59
2023-08-08T01:23:11.501Z,15.55
2023-08-08T01:25:46.589Z,15.51
2023-08-08T01:28:23.308Z,15.50
2023-08-08T01:30:56.309Z,15.46
2023-08-08T01:33:29.534Z,15.42
2023-08-08T01:36:07.118Z,15.38
2023-08-08T01:38:45.482Z,15.34
2023-08-08T01:41:19.967Z,15.29
2023-08-08T01:43:53.156Z,15.24
2023-08-08T01:46:26.625Z,15.20
2023-08-08T01:49:00.812Z,15.17
2023-08-08T01:51:33.739Z,15.12
2023-08-08T01:54:06.805Z,15.08
2023-08-08T01:56:41.069Z,15.05
2023-08-08T01:59:16.032Z,15.02
2023-08-08T02:01:49.651Z,14.99
2023-08-08T02:04:22.668Z,14.96
2023-08-08T02:06:55.721Z,14.92
2023-08-08T02:09:29.074Z,14.89
2023-08-08T02:12:03.365Z,14.86
2023-08-08T02:14:39.700Z,14.84
2023-08-08T02:17:12.588Z,14.84
2023-08-08T02:19:45.515Z,14.79
2023-08-08T02:22:19.364Z,14.76
2023-08-08T02:24:52.377Z,14.73
2023-08-08T02:27:26.771Z,14.70
2023-08-08T02:29:59.724Z,14.66
2023-08-08T02:32:32.630Z,14.64
2023-08-08T02:35:06.123Z,14.61
2023-08-08T02:37:39.084Z,14.60
2023-08-08T02:40:12.681Z,14.57
2023-08-08T02:42:47.049Z,14.54
2023-08-08T02:45:20.009Z,14.51
2023-08-08T02:47:53.041Z,14.51
2023-08-08T02:50:26.054Z,14.50
2023-08-08T02:52:59.328Z,14.49
2023-08-08T02:55:38.502Z,14.47
2023-08-08T02:58:12.902Z,14.45
2023-08-08T03:00:46.125Z,14.46
2023-08-08T03:03:21.246Z,14.45
2023-08-08T03:05:54.274Z,14.44
2023-08-08T03:08:28.768Z,14.42
2023-08-08T03:11:03.671Z,14.41
2023-08-08T03:13:38.329Z,14.39
2023-08-08T03:16:11.468Z,14.38
2023-08-08T03:18:44.654Z,14.37
2023-08-08T03:21:20.338Z,14.36
2023-08-08T03:23:53.295Z,14.35
2023-08-08T03:26:26.431Z,14.33
2023-08-08T03:29:01.430Z,14.32
2023-08-08T03:31:40.791Z,14.33
2023-08-08T03:34:14.312Z,14.33
2023-08-08T03:36:48.153Z,14.32
2023-08-08T03:39:21.162Z,14.33
2023-08-08T03:41:54.138Z,14.34
2023-08-08T03:44:28.547Z,14.34
2023-08-08T03:47:09.896Z,14.38
2023-08-08T03:49:46.928Z,14.42
2023-08-08T03:52:19.899Z,14.48
2023-08-08T03:54:54.017Z,14.53
2023-08-08T03:57:28.770Z,14.63
2023-08-08T04:00:03.429Z,14.69
2023-08-08T04:02:46.108Z,14.77
2023-08-08T04:05:19.318Z,14.82
2023-08-08T04:07:52.299Z,14.87
2023-08-08T04:10:25.166Z,14.92
2023-08-08T04:12:58.098Z,14.97
2023-08-08T04:15:32.351Z,15.02
2023-08-08T04:18:07.599Z,15.05
2023-08-08T04:20:40.596Z,15.10
2023-08-08T04:23:13.597Z,15.14
2023-08-08T04:25:46.751Z,15.18
2023-08-08T04:28:19.661Z,15.22
2023-08-08T04:30:53.920Z,15.28
2023-08-08T04:33:26.829Z,15.34
2023-08-08T04:36:00.054Z,15.40
2023-08-08T04:38:32.954Z,15.42
2023-08-08T04:41:05.917Z,15.42
2023-08-08T04:43:38.856Z,15.45
2023-08-08T04:46:13.498Z,15.48
2023-08-08T04:48:46.421Z,15.49
2023-08-08T04:51:19.427Z,15.51
2023-08-08T04:53:52.353Z,15.54
2023-08-08T04:56:25.286Z,15.55
2023-08-08T04:58:58.256Z,15.57
2023-08-08T05:01:32.500Z,15.59
2023-08-08T05:04:06.254Z,15.58
2023-08-08T05:06:39.264Z,15.56
2023-08-08T05:09:12.202Z,15.57
2023-08-08T05:11:45.124Z,15.60
2023-08-08T05:14:18.039Z,15.63
2023-08-08T05:16:52.408Z,15.66
2023-08-08T05:19:26.356Z,15.66
2023-08-08T05:21:59.507Z,15.66
2023-08-08T05:24:32.648Z,15.65
2023-08-08T05:27:05.868Z,15.71
2023-08-08T05:29:39.641Z,15.81
2023-08-08T05:32:14.018Z,15.90
2023-08-08T05:34:47.163Z,15.97
2023-08-08T05:37:20.218Z,16.00
2023-08-08T05:39:53.568Z,16.07
2023-08-08T05:42:26.784Z,16.06
2023-08-08T05:44:59.776Z,16.14
2023-08-08T05:47:34.346Z,16.26
2023-08-08T05:50:08.483Z,16.33
2023-08-08T05:52:41.357Z,16.46
2023-08-08T05:55:14.532Z,16.54
2023-08-08T05:57:47.411Z,16.60
2023-08-08T06:00:20.721Z,16.65
2023-08-08T06:02:54.989Z,16.70
2023-08-08T06:05:27.976Z,16.74
2023-08-08T06:08:00.897Z,16.80
2023-08-08T06:10:33.854Z,16.92
2023-08-08T06:13:06.831Z,17.02
2023-08-08T06:15:39.864Z,17.10
2023-08-08T06:18:14.132Z,17.13
2023-08-08T06:20:47.330Z,17.18
2023-08-08T06:23:20.346Z,17.21
2023-08-08T06:25:53.473Z,17.24
2023-08-08T06:28:26.518Z,17.32
2023-08-08T06:30:59.942Z,17.42
2023-08-08T06:33:34.206Z,17.48
2023-08-08T06:36:08.281Z,17.56
2023-08-08T06:38:41.225Z,17.69
2023-08-08T06:41:14.123Z,17.84
2023-08-08T06:43:47.048Z,17.94
2023-08-08T06:46:21.601Z,18.06
2023-08-08T06:48:58.317Z,18.07
2023-08-08T06:51:31.261Z,18.08
2023-08-08T06:54:07.124Z,18.05
2023-08-08T06:56:40.429Z,17.97
2023-08-08T06:59:13.836Z,17.87
2023-08-08T07:01:48.045Z,17.81
2023-08-08T07:04:23.647Z,17.74
2023-08-08T07:06:56.538Z,17.72
2023-08-08T07:09:32.013Z,17.68
2023-08-08T07:12:05.533Z,17.61
2023-08-08T07:14:38.665Z,17.58
2023-08-08T07:17:11.623Z,17.58
2023-08-08T07:19:45.909Z,17.64
2023-08-08T07:22:18.871Z,17.70
2023-08-08T07:24:51.749Z,17.79
2023-08-08T07:27:24.705Z,17.90
2023-08-08T07:29:57.569Z,18.03
2023-08-08T07:32:30.908Z,18.22
2023-08-08T07:35:09.631Z,18.43
2023-08-08T07:37:42.712Z,18.69
2023-08-08T07:40:16.437Z,19.04
2023-08-08T07:42:50.656Z,19.35
2023-08-08T07:45:23.622Z,19.62
2023-08-08T07:48:02.474Z,19.74
2023-08-08T07:50:40.609Z,19.81
2023-08-08T07:53:13.553Z,19.83
2023-08-08T07:55:48.697Z,19.96
2023-08-08T07:58:23.393Z,20.08
2023-08-08T08:00:57.050Z,20.19
2023-08-08T08:03:30.038Z,20.32
2023-08-08T08:06:04.549Z,20.53
2023-08-08T08:08:37.786Z,20.82
2023-08-08T08:11:10.886Z,20.90
2023-08-08T08:13:44.080Z,20.94
2023-08-08T08:16:17.002Z,21.15
2023-08-08T08:18:50.163Z,21.22
2023-08-08T08:21:24.594Z,21.25
2023-08-08T08:23:59.464Z,21.36
2023-08-08T08:26:33.092Z,21.54
2023-08-08T08:29:06.298Z,21.64
2023-08-08T08:31:39.674Z,21.77
2023-08-08T08:34:12.721Z,21.82
2023-08-08T08:36:47.100Z,21.93
2023-08-08T08:39:20.553Z,21.97
2023-08-08T08:42:02.743Z,22.17
2023-08-08T08:44:37.421Z,22.29
2023-08-08T08:47:12.132Z,22.58
2023-08-08T08:49:46.841Z,23.05
2023-08-08T08:52:22.214Z,23.85
2023-08-08T08:54:57.884Z,23.75
2023-08-08T08:57:31.448Z,23.24
2023-08-08T09:00:07.098Z,22.70
2023-08-08T09:02:40.751Z,22.18
2023-08-08T09:05:14.335Z,21.62
2023-08-08T09:07:48.634Z,21.20
2023-08-08T09:10:22.912Z,20.95
2023-08-08T09:12:55.884Z,22.55
2023-08-08T09:15:32.587Z,24.83
2023-08-08T09:18:05.703Z,26.66
2023-08-08T09:20:38.543Z,26.53
2023-08-08T09:23:15.187Z,27.05
2023-08-08T09:25:48.168Z,27.53
2023-08-08T09:28:24.412Z,28.97
2023-08-08T09:30:57.362Z,30.06
2023-08-08T09:33:31.980Z,31.47
2023-08-08T09:36:05.500Z,32.49
2023-08-08T09:38:40.011Z,32.30
2023-08-08T09:41:13.025Z,31.03
2023-08-08T09:43:46.367Z,29.48
2023-08-08T09:46:20.900Z,28.74
2023-08-08T09:48:55.735Z,29.86
2023-08-08T09:51:29.181Z,30.40
2023-08-08T09:54:09.458Z,29.40
2023-08-08T09:56:42.870Z,28.46
2023-08-08T09:59:16.305Z,27.15
2023-08-08T10:01:50.342Z,26.04
2023-08-08T10:04:24.466Z,25.30
2023-08-08T10:06:59.582Z,24.46
2023-08-08T10:09:38.527Z,23.95
2023-08-08T10:12:16.494Z,24.04
2023-08-08T10:14:49.990Z,25.55
2023-08-08T10:17:25.164Z,27.50
2023-08-08T10:20:00.778Z,29.54
2023-08-08T10:22:33.907Z,29.96
2023-08-08T10:25:09.689Z,31.13
2023-08-08T10:27:45.018Z,30.68
2023-08-08T10:30:20.311Z,29.68
2023-08-08T10:32:56.276Z,28.45
2023-08-08T10:35:38.725Z,27.16
2023-08-08T10:38:11.925Z,25.99
2023-08-08T10:40:49.320Z,25.27
2023-08-08T10:43:30.781Z,26.36
2023-08-08T10:46:14.116Z,26.86
2023-08-08T10:49:03.161Z,26.56
2023-08-08T10:51:38.620Z,26.91
2023-08-08T10:54:28.279Z,26.57
2023-08-08T10:57:02.570Z,25.97
2023-08-08T10:59:40.257Z,25.43
2023-08-08T11:02:17.736Z,25.32
2023-08-08T11:04:52.304Z,25.92
2023-08-08T11:07:25.342Z,26.32
2023-08-08T11:09:58.178Z,25.99
2023-08-08T11:12:32.461Z,25.54
2023-08-08T11:15:06.140Z,25.27
2023-08-08T11:17:39.219Z,25.27
2023-08-08T11:20:13.124Z,25.27
2023-08-08T11:22:46.162Z,25.38
2023-08-08T11:25:18.840Z,25.31
2023-08-08T11:27:54.257Z,24.95
2023-08-08T11:30:32.615Z,24.61
2023-08-08T11:35:47.560Z,24.61
2023-08-08T11:38:20.925Z,24.82
2023-08-08T11:40:56.403Z,24.99
2023-08-08T11:43:30.842Z,24.95
2023-08-08T11:46:04.560Z,24.76
2023-08-08T11:48:37.770Z,24.33
2023-08-08T11:51:13.596Z,24.02
2023-08-08T11:53:53.920Z,23.50
2023-08-08T11:56:26.970Z,23.13
2023-08-08T11:59:01.929Z,22.88
2023-08-08T12:01:35.568Z,22.76
2023-08-08T12:04:10.280Z,22.84
2023-08-08T12:06:45.096Z,22.96
2023-08-08T12:09:19.083Z,23.11
2023-08-08T12:11:52.950Z,23.31
2023-08-08T12:14:27.522Z,23.58
2023-08-08T12:17:00.970Z,23.71
2023-08-08T12:19:34.157Z,23.77
2023-08-08T12:22:07.071Z,23.79
2023-08-08T12:24:39.956Z,23.75
2023-08-08T12:27:12.942Z,23.62
2023-08-08T12:29:47.206Z,23.47
2023-08-08T12:32:24.656Z,23.31
2023-08-08T12:35:00.117Z,23.24
2023-08-08T12:37:33.015Z,23.27
2023-08-08T12:40:08.470Z,23.24
2023-08-08T12:42:41.574Z,23.18
2023-08-08T12:45:15.931Z,23.12
2023-08-08T12:47:48.915Z,22.99
2023-08-08T12:50:22.085Z,22.80
2023-08-08T12:52:54.996Z,22.52
2023-08-08T12:55:27.922Z,22.22
2023-08-08T12:58:00.838Z,21.98
2023-08-08T13:00:35.195Z,21.89
2023-08-08T13:03:08.911Z,21.88
2023-08-08T13:05:41.843Z,21.92
2023-08-08T13:08:15.914Z,21.99
2023-08-08T13:10:48.818Z,22.06
2023-08-08T13:13:24.373Z,22.09
2023-08-08T13:15:59.282Z,22.08
2023-08-08T13:18:32.314Z,22.10
2023-08-08T13:21:06.946Z,22.17
2023-08-08T13:23:40.023Z,22.22
2023-08-08T13:26:12.921Z,22.17
2023-08-08T13:28:45.870Z,22.14
2023-08-08T13:31:20.163Z,22.18
2023-08-08T13:33:53.131Z,22.21
2023-08-08T13:36:26.206Z,22.14
2023-08-08T13:38:59.166Z,22.08
2023-08-08T13:41:32.318Z,22.09
2023-08-08T13:44:05.700Z,22.16
2023-08-08T13:46:40.066Z,22.23
2023-08-08T13:49:13.132Z,22.25
2023-08-08T13:51:47.338Z,22.24
2023-08-08T13:54:22.257Z,22.18
2023-08-08T13:56:55.283Z,22.03
2023-08-08T13:59:28.392Z,21.89
2023-08-08T14:02:02.949Z,21.76
2023-08-08T14:04:36.171Z,21.73
2023-08-08T14:07:09.122Z,21.79
2023-08-08T14:09:42.047Z,21.84
2023-08-08T14:12:15.150Z,21.84
2023-08-08T14:14:48.051Z,21.83
2023-08-08T14:17:22.508Z,21.82
2023-08-08T14:19:55.492Z,21.79
2023-08-08T14:22:28.401Z,21.81
2023-08-08T14:25:01.307Z,21.90
2023-08-08T14:27:36.880Z,22.01
2023-08-08T14:30:11.571Z,22.07
2023-08-08T14:32:45.941Z,22.01
2023-08-08T14:35:18.969Z,21.88
2023-08-08T14:37:51.909Z,21.81
2023-08-08T14:40:24.856Z,21.78
2023-08-08T14:42:57.888Z,21.83
2023-08-08T14:45:31.130Z,21.87
2023-08-08T14:48:05.604Z,21.91
2023-08-08T14:50:39.304Z,21.86
2023-08-08T14:53:12.222Z,21.86
2023-08-08T14:55:45.247Z,21.90
2023-08-08T14:58:18.128Z,21.95
2023-08-08T15:00:51.108Z,21.95
2023-08-08T15:03:25.541Z,21.89
2023-08-08T15:05:58.519Z,21.74
2023-08-08T15:08:31.477Z,21.58
2023-08-08T15:11:04.389Z,21.47
2023-08-08T15:13:37.335Z,21.33
2023-08-08T15:16:10.399Z,21.24
2023-08-08T15:18:44.701Z,21.12
2023-08-08T15:21:20.579Z,20.90
2023-08-08T15:23:53.550Z,20.61
2023-08-08T15:26:26.531Z,20.32
2023-08-08T15:28:59.666Z,20.01
2023-08-08T15:31:34.313Z,19.68
2023-08-08T15:34:08.888Z,19.40
2023-08-08T15:36:41.753Z,19.18
2023-08-08T15:39:14.698Z,18.98
2023-08-08T15:41:48.282Z,18.88
2023-08-08T15:44:21.256Z,18.86
2023-08-08T15:46:54.169Z,18.91
2023-08-08T15:49:28.532Z,19.00
2023-08-08T15:52:01.705Z,19.12
2023-08-08T15:54:34.697Z,19.27
2023-08-08T15:57:08.096Z,19.43
2023-08-08T15:59:43.329Z,19.57
2023-08-08T16:02:18.019Z,19.68
2023-08-08T16:04:53.520Z,19.76
2023-08-08T16:07:26.479Z,19.81
2023-08-08T16:09:59.387Z,19.81
2023-08-08T16:12:33.585Z,19.81
2023-08-08T16:15:08.224Z,19.79
2023-08-08T16:17:41.178Z,19.78
2023-08-08T16:20:16.986Z,19.78
2023-08-08T16:22:52.334Z,19.77
2023-08-08T16:25:25.386Z,19.77
2023-08-08T16:27:58.413Z,19.77
2023-08-08T16:30:31.881Z,19.79
2023-08-08T16:33:05.141Z,19.90
2023-08-08T16:35:39.437Z,19.79
2023-08-08T16:38:13.109Z,19.79
2023-08-08T16:40:46.104Z,19.80
2023-08-08T16:43:19.027Z,19.78
2023-08-08T16:45:51.898Z,19.79
2023-08-08T16:48:24.897Z,19.77
2023-08-08T16:50:59.472Z,19.75
2023-08-08T16:53:32.480Z,19.74
2023-08-08T16:56:08.032Z,19.72
2023-08-08T16:58:42.045Z,19.70
2023-08-08T17:01:15.242Z,19.69
2023-08-08T17:03:48.156Z,19.70
2023-08-08T17:06:22.488Z,19.69
2023-08-08T17:08:55.355Z,19.69
2023-08-08T17:11:35.698Z,19.67
2023-08-08T17:14:08.740Z,19.66
2023-08-08T17:16:41.880Z,19.65
2023-08-08T17:19:14.970Z,19.63
2023-08-08T17:21:58.567Z,19.62
2023-08-08T17:24:36.615Z,19.62
2023-08-08T17:27:18.991Z,19.60
2023-08-08T17:29:52.044Z,19.59
2023-08-08T17:32:24.929Z,19.57
2023-08-08T17:34:57.939Z,19.52
2023-08-08T17:37:32.279Z,19.48
2023-08-08T17:40:06.023Z,19.41
2023-08-08T17:42:39.208Z,19.35
2023-08-08T17:45:12.666Z,19.29
2023-08-08T17:47:45.363Z,19.35
2023-08-08T17:50:18.360Z,19.20
2023-08-08T17:52:52.682Z,19.13
2023-08-08T17:55:25.779Z,19.09
2023-08-08T17:57:58.720Z,19.05
2023-08-08T18:00:34.375Z,19.00
2023-08-08T18:03:07.382Z,18.96
2023-08-08T18:05:40.968Z,18.91
2023-08-08T18:08:15.274Z,18.99
2023-08-08T18:10:49.748Z,18.85
2023-08-08T18:13:22.717Z,18.81
2023-08-08T18:15:56.170Z,18.76
2023-08-08T18:18:29.264Z,18.71
2023-08-08T18:21:02.248Z,18.67
2023-08-08T18:23:36.543Z,18.63
2023-08-08T18:26:09.431Z,18.60
2023-08-08T18:28:42.326Z,18.56
2023-08-08T18:31:15.694Z,18.51
2023-08-08T18:33:48.921Z,18.47
2023-08-08T18:36:21.772Z,18.41
2023-08-08T18:38:56.114Z,18.37
2023-08-08T18:41:29.342Z,18.35
2023-08-08T18:44:02.561Z,18.33
2023-08-08T18:46:35.546Z,18.29
2023-08-08T18:49:11.383Z,18.27
2023-08-08T18:51:44.359Z,18.23
2023-08-08T18:54:18.657Z,18.21
2023-08-08T18:56:52.361Z,18.20
2023-08-08T18:59:25.393Z,18.18
2023-08-08T19:01:58.315Z,18.15
2023-08-08T19:04:31.275Z,18.14
2023-08-08T19:07:22.950Z,18.13
2023-08-08T19:09:57.485Z,18.11
2023-08-08T19:12:30.537Z,18.08
2023-08-08T19:15:03.699Z,18.09
2023-08-08T19:17:53.575Z,18.07
2023-08-08T19:20:28.609Z,18.05
2023-08-08T19:23:01.637Z,18.02
2023-08-08T19:25:36.178Z,17.97
2023-08-08T19:28:09.378Z,17.94
2023-08-08T19:30:42.345Z,17.90
2023-08-08T19:33:16.724Z,17.85
2023-08-08T19:35:49.867Z,17.82
2023-08-08T19:38:22.959Z,17.79
2023-08-08T19:40:57.246Z,17.73
2023-08-08T19:43:30.967Z,17.69
2023-08-08T19:46:04.165Z,17.66
2023-08-08T19:48:37.154Z,17.62
2023-08-08T19:51:10.065Z,17.61
2023-08-08T19:53:43.606Z,17.60
2023-08-08T19:56:17.709Z,17.71
2023-08-08T19:58:50.834Z,17.74
2023-08-08T20:01:24.483Z,17.60
2023-08-08T20:03:57.511Z,17.55
2023-08-08T20:06:30.409Z,17.52
2023-08-08T20:09:04.315Z,17.51
2023-08-08T20:11:42.417Z,17.48
2023-08-08T20:14:15.441Z,17.47
2023-08-08T20:16:48.488Z,17.43
2023-08-08T20:19:21.471Z,17.40
2023-08-08T20:21:56.996Z,17.38
2023-08-08T20:24:30.849Z,17.36
2023-08-08T20:27:05.810Z,17.35
2023-08-08T20:29:38.982Z,17.33
2023-08-08T20:32:11.957Z,17.32
2023-08-08T20:34:45.057Z,17.29
2023-08-08T20:37:18.914Z,17.27
2023-08-08T20:39:51.899Z,17.23
2023-08-08T20:42:26.457Z,17.23
2023-08-08T20:44:59.614Z,17.22
2023-08-08T20:47:32.569Z,17.23
2023-08-08T20:50:06.206Z,17.26
2023-08-08T20:52:39.147Z,17.27
2023-08-08T20:55:12.111Z,17.30
2023-08-08T20:57:46.465Z,17.32
2023-08-08T21:00:20.304Z,17.38
2023-08-08T21:02:53.303Z,17.39
2023-08-08T21:05:33.368Z,17.42
2023-08-08T21:08:06.226Z,17.42
2023-08-08T21:10:41.482Z,17.41
2023-08-08T21:13:15.993Z,17.42
2023-08-08T21:15:49.141Z,17.43
2023-08-08T21:18:22.763Z,17.46
2023-08-08T21:20:56.245Z,17.45
2023-08-08T21:23:29.007Z,17.57
2023-08-08T21:26:04.890Z,17.49
2023-08-08T21:28:39.183Z,17.49
2023-08-08T21:31:12.194Z,17.49
2023-08-08T21:33:45.221Z,17.47
2023-08-08T21:36:18.170Z,17.39
2023-08-08T21:38:51.060Z,17.35
2023-08-08T21:41:23.957Z,17.29
2023-08-08T21:43:58.315Z,17.23
2023-08-08T21:46:31.354Z,17.14
2023-08-08T21:49:04.360Z,17.05
2023-08-08T21:51:37.738Z,16.94
2023-08-08T21:54:11.160Z,16.82
2023-08-08T21:56:46.283Z,16.68
2023-08-08T21:59:20.739Z,16.57
2023-08-08T22:01:53.785Z,16.44
2023-08-08T22:04:26.803Z,16.33
2023-08-08T22:07:00.003Z,16.27
2023-08-08T22:09:35.838Z,16.25
2023-08-08T22:12:09.399Z,16.22
2023-08-08T22:14:43.540Z,16.30
2023-08-08T22:17:16.436Z,16.14
2023-08-08T22:19:52.020Z,16.07
2023-08-08T22:22:24.910Z,16.04
2023-08-08T22:24:57.774Z,16.03
2023-08-08T22:27:30.648Z,16.00
2023-08-08T22:30:05.842Z,15.97
2023-08-08T22:32:38.762Z,15.96
2023-08-08T22:35:11.603Z,15.95
2023-08-08T22:37:44.671Z,15.95
2023-08-08T22:40:17.535Z,15.97
2023-08-08T22:42:52.206Z,15.98
2023-08-08T22:45:28.971Z,15.96
2023-08-08T22:48:02.038Z,15.96
2023-08-08T22:50:35.174Z,15.98
2023-08-08T22:53:08.578Z,15.99
2023-08-08T22:55:41.483Z,15.98
2023-08-08T22:58:15.104Z,15.94
2023-08-08T23:00:49.155Z,16.04
2023-08-08T23:03:22.347Z,15.93
2023-08-08T23:05:55.384Z,15.94
2023-08-08T23:08:29.150Z,15.91
2023-08-08T23:11:02.362Z,15.93
2023-08-08T23:13:35.302Z,15.94
2023-08-08T23:16:09.599Z,15.95
2023-08-08T23:18:42.490Z,15.97
2023-08-08T23:21:15.475Z,15.97
2023-08-08T23:23:48.435Z,15.96
2023-08-08T23:26:21.328Z,15.97
2023-08-08T23:28:54.320Z,15.98
2023-08-08T23:31:28.673Z,15.99
2023-08-08T23:34:01.816Z,15.98
2023-08-08T23:36:34.740Z,15.96
2023-08-08T23:39:09.057Z,15.95
2023-08-08T23:41:41.987Z,15.96
2023-08-08T23:44:14.800Z,15.96
2023-08-08T23:46:49.721Z,15.94
2023-08-08T23:49:22.778Z,15.92
2023-08-08T23:51:55.728Z,15.91
2023-08-08T23:54:28.641Z,15.85
2023-08-08T23:57:01.920Z,15.83
2023-08-08T23:59:34.959Z,15.82
